Time;durP1;ratioP1;P1;durP2;ratioP2;P2;SDS_P1;SDS_P2;PMS_P1;PMS_P2;Temp;Humidity;BMP_temperature;BMP_pressure;BME280_temperature;BME280_humidity;BME280_pressure;Samples;Min_cycle;Max_cycle;Signal;HPM_P1;HPM_P2
2023/10/30 00:02:06;;;;;;;1.50;1.25;;;11.40;99.90;;;;;;5011916;28;20209;-68
2023/10/30 00:04:33;;;;;;;5.30;1.75;;;11.40;99.90;;;;;;4984119;28;20791;-68
2023/10/30 00:07:00;;;;;;;3.80;1.20;;;11.40;99.90;;;;;;5012572;28;20305;-68
2023/10/30 00:09:27;;;;;;;6.82;1.80;;;11.50;99.90;;;;;;5017460;28;20201;-68
2023/10/30 00:11:55;;;;;;;1.30;0.90;;;11.60;99.90;;;;;;5002666;28;20202;-69
2023/10/30 00:14:22;;;;;;;1.92;1.10;;;11.40;99.90;;;;;;5000414;28;20676;-68
2023/10/30 00:16:50;;;;;;;1.42;0.80;;;11.30;99.90;;;;;;5019792;28;20225;-68
2023/10/30 00:19:17;;;;;;;1.40;0.75;;;11.40;99.90;;;;;;5011223;28;20201;-68
2023/10/30 00:21:44;;;;;;;5.03;1.05;;;11.40;99.90;;;;;;4985500;28;20212;-68
2023/10/30 00:24:10;;;;;;;2.33;1.08;;;11.30;99.90;;;;;;5015994;28;20220;-68
2023/10/30 00:26:38;;;;;;;2.90;0.68;;;11.30;99.90;;;;;;5006457;28;20209;-68
2023/10/30 00:29:05;;;;;;;3.95;1.00;;;11.30;99.90;;;;;;4990769;28;20964;-68
2023/10/30 00:31:32;;;;;;;6.70;1.30;;;11.30;99.90;;;;;;5011437;28;20207;-68
2023/10/30 00:34:00;;;;;;;4.40;1.02;;;11.30;99.90;;;;;;5011435;28;20197;-68
2023/10/30 00:36:27;;;;;;;3.05;1.08;;;11.40;99.90;;;;;;4975317;28;20236;-68
2023/10/30 00:38:54;;;;;;;1.27;0.80;;;11.30;99.90;;;;;;5011818;28;20738;-68
2023/10/30 00:41:21;;;;;;;5.10;1.08;;;11.30;99.90;;;;;;5010685;28;20223;-68
2023/10/30 00:43:47;;;;;;;1.52;1.10;;;11.40;99.90;;;;;;5001181;28;20210;-68
2023/10/30 00:46:14;;;;;;;0.95;0.65;;;11.30;99.90;;;;;;5015257;28;20202;-68
2023/10/30 00:48:41;;;;;;;4.25;1.00;;;11.30;99.90;;;;;;5012705;28;20197;-68
2023/10/30 00:51:09;;;;;;;4.72;1.00;;;11.30;99.90;;;;;;4987826;28;20236;-68
2023/10/30 00:53:36;;;;;;;2.47;1.08;;;11.40;99.90;;;;;;5006095;28;20675;-68
2023/10/30 00:56:03;;;;;;;2.72;0.90;;;11.40;99.90;;;;;;5020359;28;20558;-68
2023/10/30 00:58:30;;;;;;;1.70;0.82;;;11.30;99.90;;;;;;4995419;28;20202;-68
2023/10/30 01:00:56;;;;;;;4.65;1.27;;;11.30;99.90;;;;;;5006152;28;20237;-68
2023/10/30 01:03:24;;;;;;;2.35;0.90;;;11.30;99.90;;;;;;5013566;28;20212;-68
2023/10/30 01:05:56;;;;;;;2.13;0.80;;;11.30;99.90;;;;;;5013358;28;21008;-68
2023/10/30 01:08:25;;;;;;;3.22;0.80;;;11.30;99.90;;;;;;4988672;28;20857;-68
2023/10/30 01:10:52;;;;;;;0.93;0.70;;;11.30;99.90;;;;;;5018059;28;20204;-68
2023/10/30 01:13:19;;;;;;;3.33;0.95;;;11.30;99.90;;;;;;5005691;28;20213;-68
2023/10/30 01:15:46;;;;;;;3.10;0.70;;;11.30;99.90;;;;;;5007087;28;20923;-68
2023/10/30 01:18:13;;;;;;;4.15;1.00;;;11.30;99.90;;;;;;5021947;28;21882;-68
2023/10/30 01:20:40;;;;;;;1.42;0.88;;;11.30;99.90;;;;;;5018025;28;20232;-68
2023/10/30 01:23:06;;;;;;;1.42;0.75;;;11.30;99.90;;;;;;4992195;28;20248;-68
2023/10/30 01:25:34;;;;;;;1.42;0.80;;;11.30;99.90;;;;;;5012570;28;20198;-68
2023/10/30 01:28:01;;;;;;;4.43;1.10;;;11.30;99.90;;;;;;5015107;28;20212;-68
2023/10/30 01:30:28;;;;;;;1.50;0.95;;;11.60;99.90;;;;;;5010578;28;20202;-68
2023/10/30 01:32:55;;;;;;;3.10;0.85;;;11.30;99.90;;;;;;5006688;28;22076;-68
2023/10/30 01:35:21;;;;;;;2.33;0.93;;;11.30;99.90;;;;;;5018612;28;20236;-68
2023/10/30 01:37:48;;;;;;;8.35;1.00;;;11.10;99.90;;;;;;4971895;28;20237;-68
2023/10/30 01:40:15;;;;;;;3.75;1.00;;;11.40;99.90;;;;;;5019631;28;20213;-68
2023/10/30 01:42:43;;;;;;;6.47;1.27;;;11.10;99.90;;;;;;5016751;28;20198;-68
2023/10/30 01:45:11;;;;;;;4.60;1.20;;;11.30;99.90;;;;;;5010408;28;22133;-68
2023/10/30 01:47:38;;;;;;;2.42;1.20;;;11.20;99.90;;;;;;5013017;28;20600;-68
2023/10/30 01:50:09;;;;;;;3.90;0.95;;;11.30;99.90;;;;;;5021451;28;20198;-67
2023/10/30 01:52:37;;;;;;;4.10;0.95;;;11.20;99.90;;;;;;5009254;28;20209;-68
2023/10/30 01:55:06;;;;;;;3.42;0.90;;;11.30;99.90;;;;;;4992287;28;20222;-68
2023/10/30 01:57:34;;;;;;;4.70;0.90;;;11.30;99.90;;;;;;5022806;28;20221;-68
2023/10/30 02:00:03;;;;;;;2.10;0.93;;;11.20;99.90;;;;;;5009680;28;20216;-68
2023/10/30 02:02:32;;;;;;;1.50;0.98;;;11.20;99.90;;;;;;5008147;28;20221;-68
2023/10/30 02:04:59;;;;;;;7.43;1.08;;;11.10;99.90;;;;;;5017922;28;20198;-68
2023/10/30 02:07:26;;;;;;;4.75;1.15;;;11.30;99.90;;;;;;5007205;28;20225;-68
2023/10/30 02:09:54;;;;;;;1.77;0.80;;;11.20;99.90;;;;;;4989977;28;20821;-68
2023/10/30 02:12:20;;;;;;;3.63;1.10;;;11.30;99.90;;;;;;5017629;28;20202;-68
2023/10/30 02:14:47;;;;;;;4.20;1.25;;;11.30;99.90;;;;;;5007765;28;20631;-68
2023/10/30 02:17:15;;;;;;;2.38;0.95;;;11.30;99.90;;;;;;5021378;28;20229;-68
2023/10/30 02:19:42;;;;;;;3.97;1.00;;;12.50;99.90;;;;;;4994566;28;20201;-68
2023/10/30 02:22:09;;;;;;;3.72;1.23;;;11.40;99.90;;;;;;5005127;28;20202;-68
2023/10/30 02:24:36;;;;;;;6.68;1.48;;;11.50;99.90;;;;;;5004721;28;20212;-68
2023/10/30 02:27:04;;;;;;;3.20;1.02;;;11.50;99.90;;;;;;5002408;28;20224;-68
2023/10/30 02:29:31;;;;;;;1.27;0.75;;;11.40;99.90;;;;;;5015380;28;20206;-69
2023/10/30 02:31:58;;;;;;;1.17;0.85;;;11.50;99.90;;;;;;4999963;28;20901;-68
2023/10/30 02:34:25;;;;;;;2.28;1.00;;;11.50;99.90;;;;;;5003688;28;21733;-68
2023/10/30 02:36:53;;;;;;;2.63;1.00;;;11.50;99.90;;;;;;5016258;28;20239;-68
2023/10/30 02:39:19;;;;;;;3.88;1.23;;;11.50;99.90;;;;;;5005678;28;20212;-68
2023/10/30 02:41:46;;;;;;;3.85;0.95;;;11.20;99.90;;;;;;4984871;28;20682;-68
2023/10/30 02:44:14;;;;;;;4.43;1.63;;;11.40;99.90;;;;;;5018381;28;20206;-68
2023/10/30 02:46:41;;;;;;;4.55;1.25;;;11.40;99.90;;;;;;5006376;28;20698;-68
2023/10/30 02:49:08;;;;;;;2.03;0.90;;;11.20;99.90;;;;;;5014154;28;20430;-68
2023/10/30 02:51:35;;;;;;;5.95;1.27;;;11.40;99.90;;;;;;5000492;28;20237;-68
2023/10/30 02:54:02;;;;;;;4.88;1.15;;;11.50;99.90;;;;;;5014795;28;20209;-68
2023/10/30 02:56:28;;;;;;;3.25;1.17;;;11.40;99.90;;;;;;4975744;28;20729;-68
2023/10/30 02:58:55;;;;;;;5.47;1.50;;;11.40;99.90;;;;;;5015005;28;21534;-68
2023/10/30 03:01:23;;;;;;;6.82;1.25;;;11.40;99.90;;;;;;5006005;28;20221;-67
2023/10/30 03:03:50;;;;;;;4.05;1.15;;;11.40;99.90;;;;;;5014180;28;20204;-68
2023/10/30 03:06:17;;;;;;;3.63;1.20;;;11.50;99.90;;;;;;5005764;28;20212;-68
2023/10/30 03:08:44;;;;;;;3.78;1.45;;;11.40;99.90;;;;;;5017547;28;20228;-68
2023/10/30 03:11:11;;;;;;;8.10;1.42;;;11.50;99.90;;;;;;5007932;28;20209;-68
2023/10/30 03:13:37;;;;;;;4.30;1.40;;;11.50;99.90;;;;;;4993694;28;20355;-68
2023/10/30 03:16:05;;;;;;;4.53;1.42;;;11.50;99.90;;;;;;4987297;28;20205;-68
2023/10/30 03:18:35;;;;;;;4.22;1.42;;;11.50;99.90;;;;;;5011389;28;21047;-68
2023/10/30 03:21:01;;;;;;;4.82;1.10;;;11.50;99.90;;;;;;4999447;28;23058;-68
2023/10/30 03:23:28;;;;;;;4.70;1.10;;;11.40;99.90;;;;;;5009577;28;20205;-68
2023/10/30 03:25:55;;;;;;;11.40;2.05;;;11.40;99.90;;;;;;5016539;28;20198;-68
2023/10/30 03:28:22;;;;;;;2.88;1.30;;;11.40;99.90;;;;;;4988999;28;20221;-68
2023/10/30 03:30:49;;;;;;;4.55;1.20;;;11.00;99.90;;;;;;5001209;28;20224;-68
2023/10/30 03:33:15;;;;;;;4.60;1.50;;;11.40;99.90;;;;;;5015696;28;20217;-68
2023/10/30 03:35:44;;;;;;;5.05;1.52;;;11.40;99.90;;;;;;5005535;28;20994;-68
2023/10/30 03:38:10;;;;;;;3.95;1.50;;;11.30;99.90;;;;;;5000121;28;20267;-68
2023/10/30 03:40:37;;;;;;;2.70;1.25;;;11.40;99.90;;;;;;5010877;28;20198;-68
2023/10/30 03:43:04;;;;;;;4.05;1.48;;;13.00;99.90;;;;;;4987200;28;20220;-68
2023/10/30 03:45:31;;;;;;;3.65;1.13;;;11.40;99.90;;;;;;5019238;28;20217;-68
2023/10/30 03:47:58;;;;;;;4.22;1.40;;;11.40;99.90;;;;;;5007544;28;20211;-68
2023/10/30 03:50:25;;;;;;;4.65;1.35;;;11.30;99.90;;;;;;5015306;28;20237;-68
2023/10/30 03:52:53;;;;;;;6.70;1.40;;;11.40;99.90;;;;;;5003080;28;20605;-68
2023/10/30 03:55:20;;;;;;;4.20;1.58;;;11.40;99.90;;;;;;5005065;28;20202;-68
2023/10/30 03:57:47;;;;;;;5.82;1.17;;;11.40;99.90;;;;;;4986411;28;21003;-68
2023/10/30 04:00:14;;;;;;;3.40;1.08;;;11.40;99.90;;;;;;4990842;28;20229;-68
2023/10/30 04:02:41;;;;;;;6.80;1.38;;;11.40;99.90;;;;;;4989677;28;20686;-68
2023/10/30 04:05:09;;;;;;;2.45;1.08;;;11.40;99.90;;;;;;5006753;28;20216;-68
2023/10/30 04:07:36;;;;;;;3.30;1.17;;;11.40;99.90;;;;;;4997872;28;20568;-68
2023/10/30 04:10:04;;;;;;;3.95;1.65;;;11.40;99.90;;;;;;5000900;28;20212;-68
2023/10/30 04:12:31;;;;;;;5.57;1.30;;;11.40;99.90;;;;;;4978459;28;20260;-68
2023/10/30 04:14:59;;;;;;;9.23;1.50;;;11.40;99.90;;;;;;4996249;28;20231;-68
2023/10/30 04:17:25;;;;;;;5.82;1.65;;;11.40;99.90;;;;;;4973822;28;20601;-68
2023/10/30 04:19:52;;;;;;;5.88;1.27;;;11.40;99.90;;;;;;4995661;28;20232;-67
2023/10/30 04:22:19;;;;;;;4.32;1.08;;;11.50;99.90;;;;;;5008031;28;20202;-68
2023/10/30 04:24:46;;;;;;;3.42;1.20;;;11.40;99.90;;;;;;5009479;28;20831;-68
2023/10/30 04:27:14;;;;;;;10.00;2.00;;;11.40;99.90;;;;;;5008419;28;20711;-68
2023/10/30 04:29:41;;;;;;;4.20;1.10;;;11.40;99.90;;;;;;4990106;28;20606;-68
2023/10/30 04:32:09;;;;;;;8.27;1.33;;;11.50;99.90;;;;;;5009459;28;20271;-68
2023/10/30 04:34:35;;;;;;;1.92;1.15;;;11.40;99.90;;;;;;5016035;28;20386;-68
2023/10/30 04:37:02;;;;;;;5.60;1.25;;;11.40;99.90;;;;;;5017571;28;20705;-68
2023/10/30 04:39:29;;;;;;;5.57;1.42;;;11.40;99.90;;;;;;5003576;28;20197;-68
2023/10/30 04:41:56;;;;;;;5.22;1.63;;;11.40;99.90;;;;;;5020454;28;20193;-68
2023/10/30 04:44:24;;;;;;;4.47;1.52;;;11.40;99.90;;;;;;4985115;28;20222;-68
2023/10/30 04:46:52;;;;;;;5.53;1.20;;;11.40;99.90;;;;;;5006581;28;20204;-68
2023/10/30 04:49:19;;;;;;;4.82;1.40;;;11.40;99.90;;;;;;5018868;28;20233;-68
2023/10/30 04:51:46;;;;;;;5.18;1.30;;;11.60;99.90;;;;;;5015068;28;20482;-68
2023/10/30 04:54:12;;;;;;;7.95;1.95;;;11.40;99.90;;;;;;5006518;28;20218;-68
2023/10/30 04:56:39;;;;;;;5.78;1.80;;;11.40;99.90;;;;;;5021611;28;20775;-67
2023/10/30 04:59:07;;;;;;;3.65;1.17;;;11.30;99.90;;;;;;4989842;28;20225;-68
2023/10/30 05:01:35;;;;;;;4.43;1.35;;;11.30;99.90;;;;;;5000559;28;20681;-68
2023/10/30 05:04:03;;;;;;;5.93;1.35;;;11.30;99.90;;;;;;5005897;28;20205;-68
2023/10/30 05:06:30;;;;;;;5.07;1.40;;;11.40;99.90;;;;;;5021061;28;20208;-68
2023/10/30 05:08:57;;;;;;;4.95;1.65;;;11.30;99.90;;;;;;4999108;28;20692;-68
2023/10/30 05:11:23;;;;;;;5.45;1.50;;;11.30;99.90;;;;;;5023485;28;20202;-68
2023/10/30 05:13:50;;;;;;;7.85;1.20;;;11.30;99.90;;;;;;4990690;28;20209;-68
2023/10/30 05:16:17;;;;;;;8.63;1.23;;;11.20;99.90;;;;;;5022685;28;20199;-68
2023/10/30 05:18:45;;;;;;;7.65;2.10;;;11.20;99.90;;;;;;5005623;28;20732;-68
2023/10/30 05:21:12;;;;;;;5.10;1.40;;;11.20;99.90;;;;;;5022107;28;20194;-68
2023/10/30 05:23:39;;;;;;;5.47;1.67;;;11.20;99.90;;;;;;4997813;28;20206;-68
2023/10/30 05:26:05;;;;;;;7.45;1.83;;;11.30;99.90;;;;;;5015303;28;20453;-68
2023/10/30 05:28:32;;;;;;;4.80;1.50;;;11.30;99.90;;;;;;4995141;28;20224;-68
2023/10/30 05:30:59;;;;;;;3.78;1.20;;;11.20;99.90;;;;;;5018511;28;20433;-68
2023/10/30 05:33:26;;;;;;;6.13;1.63;;;11.20;99.90;;;;;;5021036;28;20225;-68
2023/10/30 05:35:54;;;;;;;4.07;1.40;;;11.20;99.90;;;;;;5004500;28;20671;-68
2023/10/30 05:38:22;;;;;;;4.35;1.52;;;11.20;99.90;;;;;;5004347;28;20228;-68
2023/10/30 05:40:49;;;;;;;4.28;1.38;;;11.30;99.90;;;;;;5006263;28;20199;-68
2023/10/30 05:43:16;;;;;;;3.60;1.80;;;11.30;99.90;;;;;;4991054;28;20221;-68
2023/10/30 05:45:42;;;;;;;5.90;1.55;;;11.30;99.90;;;;;;5020870;28;20200;-68
2023/10/30 05:48:09;;;;;;;5.95;1.70;;;11.20;99.90;;;;;;5010544;28;20434;-68
2023/10/30 05:50:36;;;;;;;7.72;1.90;;;11.20;99.90;;;;;;5008070;28;20234;-68
2023/10/30 05:53:04;;;;;;;2.78;1.25;;;11.20;99.90;;;;;;5004976;28;21539;-68
2023/10/30 05:55:31;;;;;;;9.52;2.08;;;11.20;99.90;;;;;;5017182;28;20313;-67
2023/10/30 05:57:58;;;;;;;4.38;1.45;;;11.20;99.90;;;;;;4996726;28;20225;-68
2023/10/30 06:00:25;;;;;;;5.32;1.55;;;11.20;99.90;;;;;;4983777;28;21645;-67
2023/10/30 06:02:52;;;;;;;3.65;1.20;;;11.20;99.90;;;;;;5011576;28;20198;-67
2023/10/30 06:05:19;;;;;;;6.22;1.85;;;11.20;99.90;;;;;;5008387;28;20193;-67
2023/10/30 06:07:46;;;;;;;2.67;1.35;;;11.20;99.90;;;;;;5005549;28;20228;-67
2023/10/30 06:10:16;;;;;;;4.93;1.13;;;11.20;99.90;;;;;;5013310;28;20347;-67
2023/10/30 06:12:44;;;;;;;5.78;1.42;;;11.20;99.90;;;;;;5006043;28;20714;-67
2023/10/30 06:15:12;;;;;;;9.43;2.15;;;11.20;99.90;;;;;;4981388;28;20818;-67
2023/10/30 06:17:39;;;;;;;5.85;1.50;;;11.20;99.90;;;;;;5006377;28;20263;-67
2023/10/30 06:20:07;;;;;;;2.75;1.33;;;11.20;99.90;;;;;;5015698;28;20761;-67
2023/10/30 06:22:34;;;;;;;4.18;1.25;;;11.20;99.90;;;;;;5009010;28;20227;-67
2023/10/30 06:25:01;;;;;;;7.10;1.50;;;11.20;99.90;;;;;;4999271;28;20438;-67
2023/10/30 06:27:29;;;;;;;4.78;1.88;;;11.20;99.90;;;;;;5003957;28;20216;-67
2023/10/30 06:29:56;;;;;;;6.03;1.48;;;11.20;99.90;;;;;;4980655;28;20229;-67
2023/10/30 06:32:23;;;;;;;11.70;1.67;;;11.10;99.90;;;;;;5011637;28;20197;-68
2023/10/30 06:34:50;;;;;;;6.50;1.92;;;11.10;99.90;;;;;;4994767;28;20725;-67
2023/10/30 06:37:16;;;;;;;5.03;1.48;;;11.20;99.90;;;;;;4999707;28;20220;-68
2023/10/30 06:39:43;;;;;;;7.07;1.17;;;11.20;99.90;;;;;;4995366;28;20231;-68
2023/10/30 06:42:10;;;;;;;5.10;1.70;;;11.20;99.90;;;;;;5014898;28;20223;-68
2023/10/30 06:44:38;;;;;;;4.07;1.40;;;11.10;99.90;;;;;;4975412;28;20201;-68
2023/10/30 06:47:06;;;;;;;5.03;1.20;;;11.20;99.90;;;;;;5006064;28;20225;-68
2023/10/30 06:49:33;;;;;;;5.78;1.77;;;11.20;99.90;;;;;;5017903;28;20206;-67
2023/10/30 06:52:01;;;;;;;8.00;1.67;;;11.20;99.90;;;;;;5008630;28;20233;-68
2023/10/30 06:54:28;;;;;;;8.13;1.55;;;10.90;99.90;;;;;;5003275;28;20213;-68
2023/10/30 06:56:54;;;;;;;6.05;1.58;;;11.20;99.90;;;;;;5012758;28;20948;-68
2023/10/30 06:59:21;;;;;;;3.53;1.02;;;11.00;99.90;;;;;;4983824;28;20225;-68
2023/10/30 07:01:49;;;;;;;4.60;1.58;;;11.20;99.90;;;;;;4951414;28;20237;-68
2023/10/30 07:04:17;;;;;;;1.88;1.20;;;11.20;99.90;;;;;;4991309;28;20202;-68
2023/10/30 07:06:44;;;;;;;5.53;1.33;;;11.20;99.90;;;;;;5008420;28;20301;-68
2023/10/30 07:09:12;;;;;;;8.90;1.40;;;10.80;99.90;;;;;;4998094;28;20236;-68
2023/10/30 07:11:40;;;;;;;5.53;1.35;;;11.10;99.90;;;;;;4998232;28;20774;-67
2023/10/30 07:14:08;;;;;;;5.75;1.38;;;11.10;99.90;;;;;;5002688;28;20209;-68
2023/10/30 07:16:36;;;;;;;2.78;1.23;;;11.20;99.90;;;;;;4969706;28;20245;-68
2023/10/30 07:19:04;;;;;;;7.80;1.50;;;11.20;99.90;;;;;;4997936;28;20226;-68
2023/10/30 07:21:31;;;;;;;6.90;1.70;;;11.20;99.90;;;;;;5000728;28;20429;-68
2023/10/30 07:23:58;;;;;;;3.88;1.40;;;11.10;99.90;;;;;;5000894;28;20193;-68
2023/10/30 07:26:25;;;;;;;4.82;1.50;;;11.20;99.90;;;;;;5000970;28;20228;-68
2023/10/30 07:28:53;;;;;;;4.75;1.42;;;11.10;99.90;;;;;;4991273;28;20205;-68
2023/10/30 07:31:20;;;;;;;6.45;1.25;;;11.10;99.90;;;;;;4982084;28;20201;-68
2023/10/30 07:33:49;;;;;;;3.67;1.27;;;11.20;99.90;;;;;;4985808;28;20520;-68
2023/10/30 07:36:17;;;;;;;10.43;1.77;;;11.20;99.90;;;;;;5003096;28;20206;-68
2023/10/30 07:38:44;;;;;;;5.95;1.65;;;11.10;99.90;;;;;;5010381;28;20515;-68
2023/10/30 07:41:11;;;;;;;10.75;1.67;;;11.50;99.90;;;;;;5001263;28;20206;-68
2023/10/30 07:43:38;;;;;;;7.95;1.30;;;11.20;99.90;;;;;;5000878;28;20956;-68
2023/10/30 07:46:04;;;;;;;4.00;1.30;;;11.10;99.90;;;;;;5002165;28;20208;-68
2023/10/30 07:48:31;;;;;;;9.63;2.28;;;11.20;99.90;;;;;;4975233;28;20223;-69
2023/10/30 07:51:02;;;;;;;4.05;1.30;;;11.20;99.90;;;;;;4983380;28;20585;-69
2023/10/30 07:53:31;;;;;;;10.88;1.88;;;11.20;99.90;;;;;;5011486;28;20271;-68
2023/10/30 07:55:58;;;;;;;4.07;1.30;;;11.30;99.90;;;;;;4998745;28;20210;-68
2023/10/30 07:58:25;;;;;;;7.90;1.75;;;11.30;99.90;;;;;;4994806;28;20201;-68
2023/10/30 08:00:52;;;;;;;8.75;1.55;;;11.30;99.90;;;;;;4994815;28;20880;-68
2023/10/30 08:03:19;;;;;;;4.65;1.25;;;11.40;99.90;;;;;;4965969;28;20236;-68
2023/10/30 08:05:46;;;;;;;10.82;1.83;;;11.40;99.90;;;;;;4973635;28;20256;-68
2023/10/30 08:08:16;;;;;;;3.60;1.60;;;11.30;99.90;;;;;;5000989;28;20201;-67
2023/10/30 08:10:45;;;;;;;6.40;1.65;;;11.50;99.90;;;;;;4997965;28;20339;-68
2023/10/30 08:13:12;;;;;;;4.65;1.30;;;11.50;99.90;;;;;;4997631;28;20256;-68
2023/10/30 08:15:39;;;;;;;4.35;1.30;;;11.50;99.90;;;;;;4997899;28;20785;-67
2023/10/30 08:18:06;;;;;;;7.63;1.58;;;11.50;99.90;;;;;;4987385;28;20577;-67
2023/10/30 08:20:33;;;;;;;5.03;1.55;;;11.40;99.90;;;;;;5009719;28;20236;-68
2023/10/30 08:22:59;;;;;;;9.43;1.77;;;11.60;99.90;;;;;;4999974;28;20263;-68
2023/10/30 08:25:27;;;;;;;4.28;1.27;;;11.60;99.90;;;;;;5016904;28;20207;-68
2023/10/30 08:27:56;;;;;;;5.68;1.70;;;11.60;99.90;;;;;;5000325;28;20213;-68
2023/10/30 08:30:24;;;;;;;7.88;1.52;;;11.70;99.90;;;;;;5009915;28;20245;-67
2023/10/30 08:32:51;;;;;;;7.50;1.55;;;11.80;99.90;;;;;;4969741;28;20349;-67
2023/10/30 08:35:18;;;;;;;6.28;1.60;;;11.80;99.90;;;;;;5012226;28;20204;-68
2023/10/30 08:37:45;;;;;;;12.57;2.65;;;12.00;99.90;;;;;;4988223;28;20229;-68
2023/10/30 08:40:12;;;;;;;11.27;2.67;;;11.90;99.90;;;;;;5016576;28;20332;-68
2023/10/30 08:42:39;;;;;;;5.13;1.98;;;11.90;99.90;;;;;;5008623;28;20301;-68
2023/10/30 08:45:09;;;;;;;5.63;1.70;;;11.90;99.90;;;;;;4979601;28;20226;-67
2023/10/30 08:47:36;;;;;;;5.20;1.40;;;11.90;99.90;;;;;;4949558;28;21189;-68
2023/10/30 08:50:03;;;;;;;4.88;1.58;;;12.00;99.90;;;;;;4987403;28;20237;-67
2023/10/30 08:52:29;;;;;;;4.50;1.40;;;12.80;99.90;;;;;;5005668;28;20807;-67
2023/10/30 08:54:56;;;;;;;5.70;1.35;;;12.10;99.90;;;;;;4992736;28;20597;-67
2023/10/30 08:57:24;;;;;;;7.32;1.52;;;12.10;99.90;;;;;;5018846;28;20722;-68
2023/10/30 08:59:51;;;;;;;2.75;1.20;;;12.10;99.90;;;;;;4991162;28;20271;-67
2023/10/30 09:02:19;;;;;;;5.78;1.50;;;12.10;99.90;;;;;;4964859;28;20213;-68
2023/10/30 09:04:46;;;;;;;6.68;2.33;;;12.00;99.90;;;;;;5000083;28;20219;-68
2023/10/30 09:07:13;;;;;;;6.82;1.73;;;12.10;99.90;;;;;;4992980;28;21537;-68
2023/10/30 09:09:40;;;;;;;6.32;1.52;;;12.10;99.90;;;;;;5007178;28;20612;-67
2023/10/30 09:12:08;;;;;;;11.63;2.03;;;12.20;99.90;;;;;;5013498;28;20221;-68
2023/10/30 09:14:34;;;;;;;6.55;1.67;;;12.20;99.90;;;;;;4999045;28;20225;-67
2023/10/30 09:17:02;;;;;;;6.40;2.05;;;12.20;99.90;;;;;;4985298;28;20205;-68
2023/10/30 09:19:30;;;;;;;4.90;1.67;;;12.20;99.90;;;;;;4976799;28;20481;-68
2023/10/30 09:21:57;;;;;;;4.38;1.70;;;12.20;99.90;;;;;;5013876;28;21120;-68
2023/10/30 09:24:23;;;;;;;4.28;1.85;;;12.40;99.90;;;;;;4989837;28;20400;-68
2023/10/30 09:26:50;;;;;;;6.95;1.80;;;12.60;99.90;;;;;;5015277;28;20208;-67
2023/10/30 09:29:17;;;;;;;6.63;2.30;;;12.40;99.90;;;;;;5000709;28;20228;-67
2023/10/30 09:31:44;;;;;;;7.43;1.88;;;12.50;99.90;;;;;;5016047;28;20227;-67
2023/10/30 09:34:11;;;;;;;6.13;1.85;;;12.40;99.90;;;;;;4974833;28;20255;-68
2023/10/30 09:36:39;;;;;;;7.97;1.90;;;12.70;99.90;;;;;;4988615;28;20226;-68
2023/10/30 09:39:07;;;;;;;8.98;2.13;;;12.50;99.90;;;;;;4988268;28;20237;-67
2023/10/30 09:41:37;;;;;;;9.75;1.75;;;13.10;99.90;;;;;;4995754;28;20201;-67
2023/10/30 09:44:06;;;;;;;7.50;1.75;;;12.60;99.90;;;;;;4979488;28;20212;-67
2023/10/30 09:46:33;;;;;;;6.82;2.38;;;12.40;99.90;;;;;;4994984;28;20312;-68
2023/10/30 09:49:00;;;;;;;13.55;2.05;;;12.50;99.90;;;;;;4987143;28;20251;-68
2023/10/30 09:51:28;;;;;;;6.35;1.35;;;12.60;99.90;;;;;;4994970;28;20856;-67
2023/10/30 09:53:59;;;;;;;9.60;2.20;;;12.60;99.90;;;;;;5004792;28;20226;-67
2023/10/30 09:56:28;;;;;;;7.57;1.95;;;12.60;99.90;;;;;;5002933;28;20587;-68
2023/10/30 09:58:55;;;;;;;8.38;2.13;;;12.70;99.90;;;;;;4987773;28;20225;-67
2023/10/30 10:01:22;;;;;;;5.47;1.95;;;12.70;99.90;;;;;;4981470;28;20197;-67
2023/10/30 10:03:49;;;;;;;4.68;1.70;;;12.70;99.90;;;;;;5016626;28;20217;-67
2023/10/30 10:06:16;;;;;;;7.45;1.48;;;12.40;99.90;;;;;;4989084;28;20882;-68
2023/10/30 10:08:43;;;;;;;8.45;1.75;;;12.70;99.90;;;;;;5020652;28;20241;-68
2023/10/30 10:11:11;;;;;;;3.65;1.75;;;12.80;99.90;;;;;;5002015;28;20216;-67
2023/10/30 10:13:40;;;;;;;7.80;1.95;;;12.80;99.90;;;;;;5010248;28;20229;-67
2023/10/30 10:16:07;;;;;;;5.38;1.63;;;12.80;99.90;;;;;;4987258;28;20212;-67
2023/10/30 10:18:36;;;;;;;5.20;1.77;;;12.70;99.90;;;;;;5006201;28;20321;-68
2023/10/30 10:21:04;;;;;;;7.35;1.95;;;12.80;99.90;;;;;;4979361;28;20593;-67
2023/10/30 10:23:33;;;;;;;8.95;1.60;;;13.00;99.90;;;;;;5018941;28;20216;-68
2023/10/30 10:26:03;;;;;;;12.40;1.52;;;13.20;99.90;;;;;;5005108;28;21044;-67
2023/10/30 10:28:31;;;;;;;6.93;1.55;;;13.00;99.90;;;;;;4996478;28;20213;-67
2023/10/30 10:30:59;;;;;;;8.90;1.67;;;13.00;99.90;;;;;;5005258;28;20216;-67
2023/10/30 10:33:27;;;;;;;4.45;2.13;;;12.90;99.90;;;;;;5014242;28;21082;-67
2023/10/30 10:35:55;;;;;;;10.55;2.10;;;13.00;99.90;;;;;;4988416;28;20216;-68
2023/10/30 10:38:22;;;;;;;14.40;2.25;;;13.10;99.90;;;;;;5010549;28;20202;-67
2023/10/30 10:40:50;;;;;;;4.63;1.50;;;13.10;99.90;;;;;;5001165;28;20232;-68
2023/10/30 10:43:18;;;;;;;7.60;1.83;;;13.90;99.90;;;;;;4988652;28;20225;-68
2023/10/30 10:45:48;;;;;;;10.55;2.78;;;13.10;99.90;;;;;;5018139;28;20220;-68
2023/10/30 10:48:15;;;;;;;6.43;1.75;;;13.10;99.90;;;;;;5000429;28;20668;-68
2023/10/30 10:50:42;;;;;;;8.60;1.85;;;13.10;99.90;;;;;;4986907;28;20229;-67
2023/10/30 10:53:10;;;;;;;7.93;1.75;;;13.10;99.90;;;;;;4995107;28;20221;-68
2023/10/30 10:55:42;;;;;;;6.45;2.03;;;13.10;99.90;;;;;;4982082;28;21317;-68
2023/10/30 10:58:12;;;;;;;10.32;2.20;;;13.10;99.90;;;;;;4997909;28;20228;-66
2023/10/30 11:00:47;;;;;;;6.63;2.08;;;13.20;99.90;;;;;;4987155;28;20971;-67
2023/10/30 11:03:16;;;;;;;6.10;1.88;;;13.20;99.90;;;;;;4999867;28;20297;-67
2023/10/30 11:05:45;;;;;;;5.75;1.75;;;13.20;99.90;;;;;;4979985;28;22020;-67
2023/10/30 11:08:33;;;;;;;6.85;1.65;;;13.30;99.90;;;;;;5014631;28;20598;-67
2023/10/30 11:11:19;;;;;;;9.10;2.25;;;13.30;99.90;;;;;;5021196;28;20222;-67
2023/10/30 11:14:02;;;;;;;5.95;1.80;;;13.20;99.90;;;;;;5002408;28;20231;-67
2023/10/30 11:16:34;;;;;;;5.55;1.42;;;13.30;99.90;;;;;;4984537;28;20205;-67
2023/10/30 11:19:02;;;;;;;7.32;1.70;;;13.20;99.90;;;;;;4999254;28;20276;-67
2023/10/30 11:21:29;;;;;;;4.95;1.30;;;13.30;99.90;;;;;;4977294;28;20425;-67
2023/10/30 11:23:58;;;;;;;8.88;2.10;;;13.20;99.90;;;;;;5013143;28;20317;-67
2023/10/30 11:26:43;;;;;;;7.70;1.75;;;13.30;99.90;;;;;;4986601;28;20228;-68
2023/10/30 11:29:12;;;;;;;5.18;1.90;;;13.20;99.90;;;;;;4990641;28;20201;-67
2023/10/30 11:32:10;;;;;;;8.15;2.42;;;13.30;99.90;;;;;;4996430;28;20458;-67
2023/10/30 11:34:39;;;;;;;6.47;1.83;;;13.30;99.90;;;;;;4996740;28;20619;-67
2023/10/30 11:37:10;;;;;;;5.50;1.60;;;13.30;99.90;;;;;;4986188;28;20257;-67
2023/10/30 11:39:39;;;;;;;8.68;2.08;;;13.50;99.90;;;;;;5008018;28;20204;-67
2023/10/30 11:42:26;;;;;;;6.82;2.05;;;13.40;99.90;;;;;;5012948;28;20301;-67
2023/10/30 11:44:53;;;;;;;5.28;1.80;;;13.40;99.90;;;;;;5007830;28;20229;-67
2023/10/30 11:47:21;;;;;;;3.60;1.75;;;13.70;99.90;;;;;;4993131;28;20205;-67
2023/10/30 11:49:49;;;;;;;11.18;1.85;;;13.10;99.90;;;;;;4993162;28;20220;-67
2023/10/30 11:52:16;;;;;;;5.50;1.85;;;13.30;99.90;;;;;;4983764;28;21030;-67
2023/10/30 11:54:45;;;;;;;8.35;2.22;;;13.30;99.90;;;;;;5017831;28;20557;-67
2023/10/30 11:57:12;;;;;;;5.97;1.50;;;13.40;99.90;;;;;;5014841;28;20219;-67
2023/10/30 11:59:39;;;;;;;8.80;1.90;;;13.60;99.90;;;;;;4998097;28;20324;-67
2023/10/30 12:02:06;;;;;;;7.07;2.00;;;13.60;99.90;;;;;;5003846;28;21479;-67
2023/10/30 12:04:33;;;;;;;7.18;1.42;;;13.70;99.90;;;;;;4988124;28;20216;-68
2023/10/30 12:07:03;;;;;;;7.47;1.83;;;13.60;99.90;;;;;;5020452;28;20201;-67
2023/10/30 12:09:30;;;;;;;7.72;1.50;;;13.70;99.90;;;;;;4983199;28;20311;-67
2023/10/30 12:11:57;;;;;;;7.30;1.50;;;13.70;99.90;;;;;;5001811;28;20223;-67
2023/10/30 12:14:25;;;;;;;4.47;1.35;;;13.70;99.90;;;;;;5002638;28;20255;-67
2023/10/30 12:16:53;;;;;;;6.68;1.60;;;13.70;99.90;;;;;;4982639;28;20221;-69
2023/10/30 12:19:20;;;;;;;5.07;1.80;;;14.00;99.90;;;;;;4975337;28;20205;-68
2023/10/30 12:21:48;;;;;;;5.88;1.58;;;13.70;99.90;;;;;;4996517;28;20225;-68
2023/10/30 12:24:17;;;;;;;9.48;1.55;;;13.60;99.90;;;;;;4982499;28;20225;-68
2023/10/30 12:26:46;;;;;;;3.20;1.40;;;13.60;99.90;;;;;;4986030;28;20555;-67
2023/10/30 12:29:19;;;;;;;5.50;1.70;;;13.60;99.90;;;;;;4986183;28;20212;-68
2023/10/30 12:31:50;;;;;;;8.35;1.95;;;13.60;99.90;;;;;;5001595;28;20221;-67
2023/10/30 12:34:22;;;;;;;4.70;1.63;;;14.10;99.90;;;;;;4982524;28;21004;-67
2023/10/30 12:36:49;;;;;;;4.30;1.55;;;13.50;99.90;;;;;;5001435;28;20209;-67
2023/10/30 12:39:19;;;;;;;8.90;2.20;;;13.50;99.90;;;;;;4968110;28;20308;-67
2023/10/30 12:41:47;;;;;;;7.18;1.85;;;13.50;99.90;;;;;;5012099;28;20232;-67
2023/10/30 12:44:17;;;;;;;10.18;1.83;;;13.60;99.90;;;;;;4992987;28;20229;-67
2023/10/30 12:46:43;;;;;;;6.50;1.58;;;14.10;99.90;;;;;;4999266;28;20312;-67
2023/10/30 12:49:10;;;;;;;4.72;1.42;;;13.70;99.90;;;;;;4999074;28;20221;-67